Time;durP1;ratioP1;P1;durP2;ratioP2;P2;SDS_P1;SDS_P2;PMS_P1;PMS_P2;Temp;Humidity;BMP_temperature;BMP_pressure;BME280_temperature;BME280_humidity;BME280_pressure;Samples;Min_cycle;Max_cycle;Signal;HPM_P1;HPM_P2
2023/05/05 00:01:05;;;;;;;1999.90;999.90;;;;;;;10.75;100.00;98330.97;5050668;28;20478;-83
2023/05/05 00:03:34;;;;;;;1999.90;999.90;;;;;;;10.82;100.00;98335.28;5050495;28;20021;-82
2023/05/05 00:05:59;;;;;;;1999.90;999.90;;;;;;;10.77;100.00;98339.69;5049333;28;20486;-80
2023/05/05 00:08:24;;;;;;;1999.90;999.90;;;;;;;10.69;100.00;98334.84;5040869;28;20037;-82
2023/05/05 00:10:51;;;;;;;1999.90;999.90;;;;;;;10.77;100.00;98339.69;5030780;28;20033;-82
2023/05/05 00:13:19;;;;;;;1999.90;999.90;;;;;;;10.64;100.00;98334.91;5030737;28;20026;-83
2023/05/05 00:15:46;;;;;;;1999.90;999.90;;;;;;;10.49;100.00;98332.28;5029301;28;20022;-81
2023/05/05 00:18:14;;;;;;;1999.90;999.90;;;;;;;10.47;100.00;98322.72;5030614;28;20056;-81
2023/05/05 00:20:40;;;;;;;1999.90;999.90;;;;;;;10.46;100.00;98324.63;5030222;28;20057;-83
2023/05/05 00:23:05;;;;;;;1999.90;999.90;;;;;;;10.43;100.00;98325.19;5031208;28;20033;-81
2023/05/05 00:25:31;;;;;;;1999.90;999.90;;;;;;;10.54;100.00;98336.88;5033981;28;20036;-82
2023/05/05 00:27:56;;;;;;;1999.90;999.90;;;;;;;10.51;100.00;98329.25;5034335;28;20040;-79
2023/05/05 00:30:21;;;;;;;1999.90;999.90;;;;;;;10.49;100.00;98318.63;5034065;28;20026;-81
2023/05/05 00:32:47;;;;;;;1999.90;999.90;;;;;;;10.42;100.00;98328.25;5049045;28;20037;-81
2023/05/05 00:35:16;;;;;;;1999.90;999.90;;;;;;;10.35;100.00;98320.34;5039620;28;20394;-77
2023/05/05 00:37:42;;;;;;;1999.90;999.90;;;;;;;10.47;100.00;98319.97;5035340;28;20045;-77
2023/05/05 00:40:08;;;;;;;1999.90;999.90;;;;;;;10.44;100.00;98315.91;5049913;28;20040;-76
2023/05/05 00:42:43;;;;;;;1999.90;999.90;;;;;;;10.45;100.00;98316.72;5033507;28;20033;-77
2023/05/05 00:45:13;;;;;;;1999.90;999.90;;;;;;;10.28;100.00;98308.91;5015064;28;20096;-75
2023/05/05 00:47:51;;;;;;;1999.90;999.90;;;;;;;10.46;100.00;98330.09;5048313;28;20049;-76
2023/05/05 00:50:27;;;;;;;1999.90;999.90;;;;;;;10.34;100.00;98313.25;5032849;28;20029;-76
2023/05/05 00:52:54;;;;;;;1999.90;999.90;;;;;;;10.28;100.00;98316.28;5015270;28;20048;-76
2023/05/05 00:55:20;;;;;;;1999.90;999.90;;;;;;;10.24;100.00;98313.34;5014911;28;20048;-77
2023/05/05 00:57:47;;;;;;;1999.90;999.90;;;;;;;10.34;100.00;98310.50;5033315;28;20029;-76
2023/05/05 01:00:12;;;;;;;1999.90;999.90;;;;;;;10.40;100.00;98312.09;5032895;28;20049;-77
2023/05/05 01:02:39;;;;;;;1999.90;999.90;;;;;;;10.47;100.00;98309.88;5033651;28;20478;-75
2023/05/05 01:05:07;;;;;;;1999.90;999.90;;;;;;;10.36;100.00;98307.50;5032885;28;20391;-75
2023/05/05 01:07:42;;;;;;;1999.90;999.90;;;;;;;10.32;100.00;98312.72;5032745;28;20023;-76
2023/05/05 01:10:13;;;;;;;1999.90;999.90;;;;;;;10.25;100.00;98297.72;5032663;28;20030;-77
2023/05/05 01:13:04;;;;;;;1999.90;999.90;;;;;;;10.12;100.00;98293.69;5014715;28;20026;-77
2023/05/05 01:16:05;;;;;;;1999.90;999.90;;;;;;;10.17;100.00;98300.00;5032477;28;20032;-77
2023/05/05 01:18:52;;;;;;;1999.90;999.90;;;;;;;10.16;100.00;98303.81;5018089;28;20037;-77
2023/05/05 01:21:25;;;;;;;1999.90;999.90;;;;;;;10.14;100.00;98300.56;5014402;28;20402;-77
2023/05/05 01:24:15;;;;;;;1999.90;999.90;;;;;;;10.07;100.00;98304.66;5032229;28;20029;-77
2023/05/05 01:26:50;;;;;;;1999.90;999.90;;;;;;;10.10;100.00;98302.19;5032216;28;20040;-75
2023/05/05 01:29:43;;;;;;;1999.90;999.90;;;;;;;10.03;100.00;98304.41;5032791;28;20032;-76
2023/05/05 01:32:11;;;;;;;1999.90;999.90;;;;;;;10.06;100.00;98298.38;5032137;28;20025;-76
2023/05/05 01:35:00;;;;;;;1999.90;999.90;;;;;;;10.07;100.00;98300.03;5032003;28;20120;-75
2023/05/05 01:37:31;;;;;;;1999.90;999.90;;;;;;;9.91;100.00;98271.16;5013993;28;20053;-75
2023/05/05 01:40:02;;;;;;;1999.90;999.90;;;;;;;10.03;100.00;98292.66;5032131;28;20068;-78
2023/05/05 01:42:29;;;;;;;1999.90;999.90;;;;;;;10.10;100.00;98298.63;5031817;28;20394;-75
2023/05/05 01:44:56;;;;;;;1999.90;999.90;;;;;;;9.99;100.00;98292.41;5014188;28;20076;-76
2023/05/05 01:47:22;;;;;;;1999.90;999.90;;;;;;;9.96;100.00;98294.91;5031912;28;20025;-75
2023/05/05 01:49:49;;;;;;;1999.90;999.90;;;;;;;9.90;100.00;98304.25;5014119;28;20037;-76
2023/05/05 01:52:15;;;;;;;1999.90;999.90;;;;;;;9.81;100.00;98278.59;5031758;28;20020;-78
2023/05/05 01:54:42;;;;;;;1999.90;999.90;;;;;;;9.82;100.00;98291.16;5013783;28;20426;-75
2023/05/05 01:57:10;;;;;;;1999.90;999.90;;;;;;;9.64;100.00;98273.50;5031795;28;20033;-76
2023/05/05 01:59:38;;;;;;;1999.90;999.90;;;;;;;9.70;100.00;98296.97;5032225;28;20040;-76
2023/05/05 02:02:05;;;;;;;1999.90;999.90;;;;;;;9.55;100.00;98259.59;5031608;28;20033;-75
2023/05/05 02:04:33;;;;;;;1999.90;999.90;;;;;;;9.67;100.00;98284.69;5031534;28;20100;-78
2023/05/05 02:07:00;;;;;;;1999.90;999.90;;;;;;;9.65;100.00;98286.06;5031370;28;20026;-77
2023/05/05 02:09:27;;;;;;;1999.90;999.90;;;;;;;9.65;100.00;98278.69;5031610;28;20025;-78
2023/05/05 02:11:56;;;;;;;1999.90;999.90;;;;;;;9.62;100.00;98279.25;5031496;28;20032;-77
2023/05/05 02:14:22;;;;;;;1999.90;999.90;;;;;;;9.54;100.00;98266.19;5014064;28;20030;-77
2023/05/05 02:16:49;;;;;;;1999.90;999.90;;;;;;;9.54;100.00;98273.56;5032779;28;20033;-78
2023/05/05 02:19:15;;;;;;;1999.90;999.90;;;;;;;9.49;100.00;98274.38;5032320;28;20111;-77
2023/05/05 02:21:41;;;;;;;1999.90;999.90;;;;;;;9.42;100.00;98276.63;5031448;28;20072;-76
2023/05/05 02:24:07;;;;;;;1999.90;999.90;;;;;;;9.60;100.00;98278.72;5031476;28;20026;-76
2023/05/05 02:26:37;;;;;;;1999.90;999.90;;;;;;;9.45;100.00;98281.53;4997903;28;20052;-77
2023/05/05 02:29:06;;;;;;;1999.90;999.90;;;;;;;9.22;100.00;98264.94;5032420;28;20064;-77
2023/05/05 02:31:39;;;;;;;1999.90;999.90;;;;;;;9.35;100.00;98284.28;5036502;28;20064;-78
2023/05/05 02:34:07;;;;;;;1999.90;999.90;;;;;;;9.25;100.00;98257.03;5049928;28;20052;-80
2023/05/05 02:36:37;;;;;;;1999.90;999.90;;;;;;;9.12;100.00;98260.34;5051212;28;20025;-77
2023/05/05 02:39:09;;;;;;;1999.90;999.90;;;;;;;9.23;100.00;98286.53;5052170;28;20063;-78
2023/05/05 02:41:37;;;;;;;1999.90;999.90;;;;;;;9.04;100.00;98263.66;5062497;28;20033;-78
2023/05/05 02:44:05;;;;;;;1999.90;999.90;;;;;;;9.12;100.00;98265.81;5051863;28;20032;-77
2023/05/05 02:46:31;;;;;;;1999.90;999.90;;;;;;;9.10;100.00;98266.09;5050433;28;20036;-78
2023/05/05 02:48:58;;;;;;;1999.90;999.90;;;;;;;8.96;100.00;98251.41;5049537;28;20017;-76
2023/05/05 02:51:24;;;;;;;1999.90;999.90;;;;;;;8.91;100.00;98259.59;5050777;28;20028;-77
2023/05/05 02:53:51;;;;;;;1999.90;999.90;;;;;;;9.02;100.00;98263.13;5050590;28;20032;-77
2023/05/05 02:56:42;;;;;;;1999.90;999.90;;;;;;;9.03;100.00;98270.19;5049317;28;20029;-76
2023/05/05 02:59:08;;;;;;;1999.90;999.90;;;;;;;8.97;100.00;98265.84;5049927;28;20025;-79
2023/05/05 03:01:55;;;;;;;1999.90;999.90;;;;;;;8.97;100.00;98260.41;5049362;28;20028;-79
2023/05/05 03:04:37;;;;;;;1999.90;999.90;;;;;;;8.79;100.00;98252.81;5049180;28;20029;-79
2023/05/05 03:07:09;;;;;;;1999.90;999.90;;;;;;;8.98;100.00;98270.22;5050395;28;20105;-78
2023/05/05 03:09:50;;;;;;;1999.90;999.90;;;;;;;8.90;100.00;98268.06;5049386;28;20037;-80
2023/05/05 03:12:21;;;;;;;1999.90;999.90;;;;;;;8.86;100.00;98267.81;5050120;28;20078;-79
2023/05/05 03:14:49;;;;;;;1999.90;999.90;;;;;;;8.96;100.00;98264.22;5049038;28;20476;-78
2023/05/05 03:17:17;;;;;;;1999.90;999.90;;;;;;;8.81;100.00;98243.25;5050647;28;20017;-77
2023/05/05 03:19:43;;;;;;;1999.90;999.90;;;;;;;8.85;100.00;98271.63;5050679;28;20017;-77
2023/05/05 03:22:09;;;;;;;1999.90;999.90;;;;;;;8.84;100.00;98269.16;5050334;28;20108;-79
2023/05/05 03:24:34;;;;;;;1999.90;999.90;;;;;;;8.75;100.00;98255.28;5035779;28;20128;-76
2023/05/05 03:27:00;;;;;;;1999.90;999.90;;;;;;;8.80;100.00;98241.63;5031737;28;20640;-76
2023/05/05 03:29:25;;;;;;;1999.90;999.90;;;;;;;9.04;100.00;98266.38;5043819;28;20117;-76
2023/05/05 03:31:51;;;;;;;1999.90;999.90;;;;;;;8.89;100.00;98236.44;5029908;28;20021;-83
2023/05/05 03:34:16;;;;;;;1999.90;999.90;;;;;;;9.04;100.00;98263.66;5029994;28;20041;-78
2023/05/05 03:36:41;;;;;;;1999.90;999.90;;;;;;;8.93;100.00;98251.94;5029283;28;20033;-78
2023/05/05 03:39:07;;;;;;;1999.90;999.90;;;;;;;8.95;100.00;98255.25;5010352;28;20431;-77
2023/05/05 03:41:33;;;;;;;1999.90;999.90;;;;;;;9.03;100.00;98267.47;5016073;28;20037;-75
2023/05/05 03:43:58;;;;;;;1999.90;999.90;;;;;;;8.97;100.00;98271.31;5029949;28;20036;-75
2023/05/05 03:46:24;;;;;;;1999.90;999.90;;;;;;;8.98;100.00;98272.97;5029825;28;20033;-79
2023/05/05 03:48:50;;;;;;;1999.90;999.90;;;;;;;8.98;100.00;98271.06;5030086;28;20029;-77
2023/05/05 03:51:15;;;;;;;1999.90;999.90;;;;;;;8.91;100.00;98270.50;5029807;28;20095;-76
2023/05/05 03:53:41;;;;;;;1999.90;999.90;;;;;;;8.80;100.00;98268.88;5013654;28;20029;-78
2023/05/05 03:56:06;;;;;;;1999.90;999.90;;;;;;;8.80;100.00;98276.28;5030035;28;20049;-79
2023/05/05 03:58:32;;;;;;;1999.90;999.90;;;;;;;8.83;100.00;98273.00;5013404;28;20060;-76
2023/05/05 04:00:57;;;;;;;1999.90;999.90;;;;;;;8.70;100.00;98259.94;5033427;28;20101;-76
2023/05/05 04:03:22;;;;;;;1999.90;999.90;;;;;;;8.78;100.00;98262.09;5033761;28;20090;-77
2023/05/05 04:05:48;;;;;;;1999.90;999.90;;;;;;;8.81;100.00;98248.72;5033217;28;20026;-77
2023/05/05 04:08:13;;;;;;;1999.90;999.90;;;;;;;9.13;100.00;98272.91;5033651;28;20035;-77
2023/05/05 04:10:39;;;;;;;1999.90;999.90;;;;;;;9.06;100.00;98269.66;5033627;28;20025;-76
2023/05/05 04:13:04;;;;;;;1999.90;999.90;;;;;;;9.10;100.00;98278.91;5033410;28;20034;-76
2023/05/05 04:15:29;;;;;;;1999.90;999.90;;;;;;;9.05;100.00;98271.56;5015529;28;20029;-78
2023/05/05 04:17:55;;;;;;;1999.90;999.90;;;;;;;9.23;100.00;98280.25;5020083;28;20047;-77
2023/05/05 04:20:20;;;;;;;1999.90;999.90;;;;;;;9.34;100.00;98285.38;5033070;28;20031;-77
2023/05/05 04:22:45;;;;;;;1999.90;999.90;;;;;;;9.44;100.00;98279.88;5015776;28;20029;-75
2023/05/05 04:25:11;;;;;;;1999.90;999.90;;;;;;;9.56;100.00;98294.03;5034988;28;20057;-78
2023/05/05 04:27:36;;;;;;;1999.90;999.90;;;;;;;9.69;100.00;98296.16;5021385;28;20494;-77
2023/05/05 04:30:02;;;;;;;1999.90;999.90;;;;;;;9.61;100.00;98291.28;5033676;28;20426;-76
2023/05/05 04:32:27;;;;;;;1999.90;999.90;;;;;;;9.82;100.00;98302.09;5033123;28;20037;-75
2023/05/05 04:34:53;;;;;;;1999.90;999.90;;;;;;;10.23;100.00;98300.75;5015050;28;20033;-76
2023/05/05 04:37:18;;;;;;;1999.90;999.90;;;;;;;10.43;100.00;98295.13;5038561;28;20049;-76
2023/05/05 04:39:44;;;;;;;1999.90;999.90;;;;;;;10.62;100.00;98307.00;5034979;28;20032;-75
2023/05/05 04:42:09;;;;;;;1999.90;999.90;;;;;;;10.63;100.00;98303.16;5052879;28;20028;-76
2023/05/05 04:44:35;;;;;;;1999.90;999.90;;;;;;;10.79;100.00;98306.59;5055628;28;20095;-76
2023/05/05 04:47:00;;;;;;;1999.90;999.90;;;;;;;11.71;100.00;98319.03;5027988;28;20029;-76
2023/05/05 04:49:29;;;;;;;1999.90;999.90;;;;;;;12.69;100.00;98322.75;5035841;28;20025;-76
2023/05/05 04:51:55;;;;;;;1999.90;999.90;;;;;;;12.12;100.00;98329.44;5035314;28;20079;-77
2023/05/05 04:54:20;;;;;;;1999.90;999.90;;;;;;;11.78;100.00;98324.94;5033256;28;20041;-75
2023/05/05 04:56:46;;;;;;;1999.90;999.90;;;;;;;11.41;100.00;98313.88;5032259;28;20038;-77
2023/05/05 04:59:12;;;;;;;1999.90;999.90;;;;;;;11.20;100.00;98317.94;5036729;28;20505;-74
2023/05/05 05:01:37;;;;;;;1999.90;999.90;;;;;;;11.99;100.00;98324.69;5050237;28;20025;-74
2023/05/05 05:04:03;;;;;;;1999.90;999.90;;;;;;;12.57;100.00;98320.50;5052533;28;20025;-72
2023/05/05 05:06:28;;;;;;;1999.90;999.90;;;;;;;12.64;100.00;98320.94;5052266;28;20498;-73
2023/05/05 05:08:54;;;;;;;1999.90;999.90;;;;;;;12.27;100.00;98324.53;5051611;28;20029;-74
2023/05/05 05:11:20;;;;;;;1999.90;999.90;;;;;;;11.92;100.00;98324.22;5034532;28;20055;-76
2023/05/05 05:13:46;;;;;;;1999.90;999.90;;;;;;;11.84;100.00;98316.66;5034287;28;20032;-74
2023/05/05 05:16:11;;;;;;;1999.90;999.90;;;;;;;11.77;100.00;98320.59;5052250;28;20036;-73
2023/05/05 05:18:36;;;;;;;1999.90;999.90;;;;;;;11.80;100.00;98322.75;5063412;28;20031;-73
2023/05/05 05:21:02;;;;;;;1999.90;999.90;;;;;;;11.82;100.00;98320.50;5047959;28;20498;-72
2023/05/05 05:23:27;;;;;;;1999.90;999.90;;;;;;;11.82;100.00;98320.50;5044259;28;20029;-75
2023/05/05 05:25:53;;;;;;;1999.90;999.90;;;;;;;11.88;100.00;98324.00;5042373;28;20029;-73
2023/05/05 05:28:18;;;;;;;1999.90;999.90;;;;;;;12.00;100.00;98323.53;5029234;28;20021;-73
2023/05/05 05:30:44;;;;;;;1999.90;999.90;;;;;;;11.70;100.00;98320.13;5043997;28;20095;-73
2023/05/05 05:33:09;;;;;;;1999.90;999.90;;;;;;;11.56;100.00;98315.63;5049846;28;20029;-76
2023/05/05 05:35:35;;;;;;;1999.90;999.90;;;;;;;11.69;100.00;98306.66;5049717;28;20478;-79
2023/05/05 05:38:00;;;;;;;1999.90;999.90;;;;;;;11.94;100.00;98311.84;5045115;28;20045;-81
2023/05/05 05:40:25;;;;;;;1999.90;999.90;;;;;;;12.01;100.00;98322.44;5016015;28;20027;-83
2023/05/05 05:42:51;;;;;;;1999.90;999.90;;;;;;;12.27;100.00;98321.81;5044735;28;20533;-86
2023/05/05 05:45:16;;;;;;;1999.90;999.90;;;;;;;12.33;100.00;98319.78;5053360;28;20025;-87
2023/05/05 05:47:41;;;;;;;1999.90;999.90;;;;;;;12.57;100.00;98325.97;5035609;28;20524;-81
2023/05/05 05:50:07;;;;;;;1999.90;999.90;;;;;;;12.55;100.00;98320.00;5037465;28;20597;-84
2023/05/05 05:52:34;;;;;;;1999.90;999.90;;;;;;;13.31;100.00;98324.19;5022594;28;20022;-85
2023/05/05 05:55:00;;;;;;;1999.90;999.90;;;;;;;15.60;100.00;98324.84;5041109;28;20389;-86
2023/05/05 05:57:26;;;;;;;1999.90;999.90;;;;;;;17.21;100.00;98329.19;5040710;28;20104;-85
2023/05/05 05:59:52;;;;;;;1999.90;999.90;;;;;;;15.77;100.00;98324.91;5021087;28;20100;-85
2023/05/05 06:02:18;;;;;;;1999.90;999.90;;;;;;;14.95;100.00;98324.63;5044098;28;20025;-86
2023/05/05 06:04:43;;;;;;;1999.90;999.90;;;;;;;14.34;100.00;98323.38;5032496;28;20045;-85
2023/05/05 06:07:08;;;;;;;1999.90;999.90;;;;;;;14.18;100.00;98326.75;5052054;28;20021;-87
2023/05/05 06:09:34;;;;;;;1999.90;999.90;;;;;;;14.21;100.00;98320.63;5052249;28;20029;-83
2023/05/05 06:11:59;;;;;;;1999.90;999.90;;;;;;;14.07;100.00;98320.66;5047804;28;20084;-85
2023/05/05 06:14:24;;;;;;;1999.90;999.90;;;;;;;13.91;100.00;98322.09;5051756;28;20029;-87
2023/05/05 06:16:51;;;;;;;1999.90;999.90;;;;;;;13.72;100.00;98313.97;5051628;28;20002;-86
2023/05/05 06:19:17;;;;;;;1999.90;999.90;;;;;;;13.77;100.00;98310.31;5054530;28;20041;-86
2023/05/05 06:21:42;;;;;;;1999.90;999.90;;;;;;;13.97;100.00;98325.59;5053673;28;20072;-86
2023/05/05 06:24:08;;;;;;;1999.90;999.90;;;;;;;13.84;100.00;98317.06;5055294;28;20013;-85
2023/05/05 06:26:33;;;;;;;1999.90;999.90;;;;;;;13.85;100.00;98307.66;5055199;28;20172;-86
2023/05/05 06:28:59;;;;;;;1999.90;999.90;;;;;;;13.96;100.00;98313.75;5054762;28;20040;-82
2023/05/05 06:31:24;;;;;;;1999.90;999.90;;;;;;;14.13;100.00;98324.09;5037204;28;20030;-87
2023/05/05 06:33:49;;;;;;;1999.90;999.90;;;;;;;14.23;100.00;98312.88;5056353;28;20033;-86
2023/05/05 06:36:15;;;;;;;1999.90;999.90;;;;;;;14.64;100.00;98313.56;5055101;28;20069;-86
2023/05/05 06:38:40;;;;;;;1999.90;999.90;;;;;;;14.96;100.00;98318.84;5056274;28;20049;-83
2023/05/05 06:41:07;;;;;;;1999.90;999.90;;;;;;;15.22;100.00;98321.75;5036615;28;20030;-86
2023/05/05 06:43:33;;;;;;;1999.90;999.90;;;;;;;14.91;100.00;98316.19;5053574;28;20010;-83
2023/05/05 06:45:58;;;;;;;1999.90;999.90;;;;;;;14.90;100.00;98316.50;5041193;28;20010;-76
2023/05/05 06:48:24;;;;;;;1999.90;999.90;;;;;;;15.19;100.00;98307.78;5056792;28;20017;-85
2023/05/05 06:50:49;;;;;;;1999.90;999.90;;;;;;;16.36;100.00;98311.53;5036481;28;20029;-86
2023/05/05 06:53:15;;;;;;;1999.90;999.90;;;;;;;17.24;100.00;98311.94;5037574;28;20012;-87
2023/05/05 06:55:45;;;;;;;1999.90;999.90;;;;;;;16.56;100.00;98308.97;5055088;28;20034;-83
2023/05/05 06:58:10;;;;;;;1999.90;999.90;;;;;;;15.61;100.00;98298.88;5053381;28;20009;-87
2023/05/05 07:00:38;;;;;;;1999.90;999.90;;;;;;;15.49;100.00;98305.03;5036141;28;20035;-82
2023/05/05 07:03:04;;;;;;;1999.90;999.90;;;;;;;15.53;100.00;98296.94;5048670;28;20029;-84
2023/05/05 07:05:29;;;;;;;1999.90;999.90;;;;;;;15.59;100.00;98301.16;5046418;28;20108;-85
2023/05/05 07:07:55;;;;;;;1999.90;999.90;;;;;;;15.63;100.00;98302.13;5030594;28;20053;-82
2023/05/05 07:10:22;;;;;;;1999.90;999.90;;;;;;;15.67;100.00;98308.66;5047211;28;20030;-85
2023/05/05 07:12:48;;;;;;;1999.90;999.90;;;;;;;15.55;100.00;98297.41;5047370;28;20026;-84
2023/05/05 07:15:14;;;;;;;1999.90;999.90;;;;;;;15.94;100.00;98305.63;5049854;28;20036;-82
2023/05/05 07:17:39;;;;;;;1999.90;999.90;;;;;;;15.88;100.00;98303.38;5050731;28;20040;-84
2023/05/05 07:20:06;;;;;;;1999.90;999.90;;;;;;;16.00;100.00;98300.78;5034678;28;20030;-85
2023/05/05 07:22:31;;;;;;;1999.90;999.90;;;;;;;15.98;100.00;98292.81;5033721;28;20065;-85
2023/05/05 07:24:57;;;;;;;1999.90;999.90;;;;;;;15.95;100.00;98298.97;5030220;28;20013;-85
2023/05/05 07:27:22;;;;;;;1999.90;999.90;;;;;;;16.37;100.00;98304.88;5053190;28;20017;-82
2023/05/05 07:29:48;;;;;;;1999.90;999.90;;;;;;;16.48;100.00;98295.13;5043869;28;20029;-86
2023/05/05 07:32:13;;;;;;;1999.90;999.90;;;;;;;16.62;100.00;98301.34;5045009;28;20109;-81
2023/05/05 07:34:39;;;;;;;1999.90;999.90;;;;;;;16.53;100.00;98292.22;5045437;28;20022;-84
2023/05/05 07:37:05;;;;;;;1999.90;999.90;;;;;;;16.74;100.00;98298.72;5047441;28;20049;-84
2023/05/05 07:39:30;;;;;;;1999.90;999.90;;;;;;;17.03;100.00;98293.31;5036584;28;20038;-86
2023/05/05 07:41:55;;;;;;;1999.90;999.90;;;;;;;17.45;100.00;98290.72;5031572;28;20026;-85
2023/05/05 07:44:21;;;;;;;1999.90;999.90;;;;;;;18.42;93.29;98302.56;5031332;28;20086;-86
2023/05/05 07:46:46;;;;;;;1999.90;999.90;;;;;;;18.47;80.95;98294.03;5050925;28;20025;-86
2023/05/05 07:49:12;;;;;;;1999.90;999.90;;;;;;;18.71;83.37;98299.72;5056181;28;20125;-87
2023/05/05 07:51:37;;;;;;;1999.90;999.90;;;;;;;18.54;79.04;98284.03;5054583;28;20021;-83
2023/05/05 07:54:02;;;;;;;1999.90;999.90;;;;;;;19.29;74.99;98284.78;5029560;28;20089;-86
2023/05/05 07:56:28;;;;;;;1999.90;999.90;;;;;;;21.06;66.83;98295.88;5023989;28;20025;-82
2023/05/05 07:58:54;;;;;;;1999.90;999.90;;;;;;;22.10;61.76;98299.03;5040594;28;20057;-87
2023/05/05 08:01:19;;;;;;;1999.90;999.90;;;;;;;24.09;52.90;98301.00;5047221;28;20057;-85
2023/05/05 08:03:45;;;;;;;1999.90;999.90;;;;;;;26.19;46.68;98312.31;5049877;28;20076;-85
2023/05/05 08:06:10;;;;;;;1999.90;999.90;;;;;;;27.20;44.19;98310.47;5029529;28;20025;-85
2023/05/05 08:08:36;;;;;;;1999.90;999.90;;;;;;;26.55;52.76;98305.75;5038281;28;20014;-76
2023/05/05 08:11:01;;;;;;;1999.90;999.90;;;;;;;24.77;53.78;98296.00;5016110;28;20036;-77
2023/05/05 08:13:29;;;;;;;1999.90;999.90;;;;;;;23.30;62.37;98282.06;5015651;28;20068;-79
2023/05/05 08:15:54;;;;;;;1999.90;999.90;;;;;;;22.18;67.64;98278.50;5015675;28;20040;-78
2023/05/05 08:18:20;;;;;;;1999.90;999.90;;;;;;;22.01;65.26;98273.34;5015674;28;20025;-79
2023/05/05 08:20:45;;;;;;;1999.90;999.90;;;;;;;21.76;67.11;98269.13;5015865;28;20390;-81
2023/05/05 08:23:11;;;;;;;1999.90;999.90;;;;;;;21.10;64.98;98267.03;5008643;28;20045;-75
2023/05/05 08:25:36;;;;;;;1999.90;999.90;;;;;;;21.31;66.91;98266.78;5013630;28;20041;-73
2023/05/05 08:28:01;;;;;;;1999.90;999.90;;;;;;;21.21;65.88;98248.63;5013513;28;20034;-74
2023/05/05 08:30:27;;;;;;;1999.90;999.90;;;;;;;21.08;62.75;98252.63;5013623;28;20029;-74
2023/05/05 08:32:52;;;;;;;1999.90;999.90;;;;;;;20.60;65.93;98266.78;5013142;28;20030;-76
2023/05/05 08:35:17;;;;;;;1999.90;999.90;;;;;;;20.43;67.00;98258.72;5013228;28;20034;-76
2023/05/05 08:37:43;;;;;;;1999.90;999.90;;;;;;;20.86;61.13;98261.56;5012996;28;20042;-76
2023/05/05 08:40:13;;;;;;;1999.90;999.90;;;;;;;21.12;62.91;98261.09;5013067;28;20109;-75
2023/05/05 08:42:38;;;;;;;1999.90;999.90;;;;;;;21.55;58.81;98266.59;5013530;28;20032;-75
2023/05/05 08:45:05;;;;;;;1999.90;999.90;;;;;;;21.56;57.83;98256.28;5012274;28;20029;-74
2023/05/05 08:47:31;;;;;;;1999.90;999.90;;;;;;;22.07;57.06;98255.16;4995640;28;20372;-76
2023/05/05 08:49:58;;;;;;;1999.90;999.90;;;;;;;22.35;54.64;98255.81;5013184;28;20025;-75
2023/05/05 08:52:30;;;;;;;1999.90;999.90;;;;;;;22.71;52.04;98249.00;5012810;28;20041;-75
2023/05/05 08:55:14;;;;;;;1999.90;999.90;;;;;;;23.12;50.75;98266.94;5012940;28;20053;-74
2023/05/05 08:57:50;;;;;;;1999.90;999.90;;;;;;;23.07;50.34;98264.47;5013218;28;20498;-75
2023/05/05 09:00:18;;;;;;;1999.90;999.90;;;;;;;23.15;49.69;98260.63;5017461;28;20026;-75
2023/05/05 09:02:44;;;;;;;1999.90;999.90;;;;;;;23.50;49.24;98242.91;5012670;28;20026;-78
2023/05/05 09:05:10;;;;;;;1999.90;999.90;;;;;;;23.79;47.54;98253.38;5017925;28;20026;-75
2023/05/05 09:07:36;;;;;;;1999.90;999.90;;;;;;;23.75;46.97;98249.72;5034131;28;20032;-76
2023/05/05 09:10:06;;;;;;;1999.90;999.90;;;;;;;24.50;45.70;98249.66;5015350;28;20029;-74
2023/05/05 09:12:32;;;;;;;1999.90;999.90;;;;;;;24.46;45.28;98241.22;5032359;28;20104;-74
2023/05/05 09:14:57;;;;;;;1999.90;999.90;;;;;;;24.48;44.08;98249.25;5032233;28;20227;-73
2023/05/05 09:17:24;;;;;;;1999.90;999.90;;;;;;;24.07;44.38;98245.44;5032201;28;20033;-73
2023/05/05 09:20:06;;;;;;;1999.90;999.90;;;;;;;24.27;44.64;98246.97;5032173;28;20017;-73
2023/05/05 09:22:52;;;;;;;1999.90;999.90;;;;;;;24.70;44.24;98236.31;5014018;28;20139;-73
2023/05/05 09:25:17;;;;;;;1999.90;999.90;;;;;;;25.06;43.60;98243.19;5031163;28;20056;-73
2023/05/05 09:27:45;;;;;;;1999.90;999.90;;;;;;;24.97;44.12;98238.69;5031747;28;20029;-73
2023/05/05 09:30:15;;;;;;;1999.90;999.90;;;;;;;24.84;42.44;98236.53;5032012;28;20082;-74
2023/05/05 09:32:42;;;;;;;1999.90;999.90;;;;;;;25.06;41.54;98238.38;5031924;28;20025;-73
2023/05/05 09:35:08;;;;;;;1999.90;999.90;;;;;;;25.01;41.26;98228.34;5032280;28;20121;-73
2023/05/05 09:37:33;;;;;;;1999.90;999.90;;;;;;;24.77;41.55;98228.03;5033051;28;20068;-74
2023/05/05 09:39:59;;;;;;;1999.90;999.90;;;;;;;24.86;41.30;98236.97;5032624;28;20029;-73
2023/05/05 09:42:25;;;;;;;1999.90;999.90;;;;;;;25.01;40.50;98233.13;5013999;28;20116;-73
2023/05/05 09:44:51;;;;;;;1999.90;999.90;;;;;;;25.46;40.06;98232.78;5031559;28;20498;-74
2023/05/05 09:47:17;;;;;;;1999.90;999.90;;;;;;;25.56;39.73;98225.69;5031236;28;20040;-74
2023/05/05 09:49:42;;;;;;;1999.90;999.90;;;;;;;25.34;39.99;98227.44;5031566;28;20493;-73
2023/05/05 09:52:15;;;;;;;1999.90;999.90;;;;;;;25.77;39.75;98219.44;5031367;28;20030;-74
2023/05/05 09:54:42;;;;;;;1999.90;999.90;;;;;;;25.74;38.19;98220.22;5031186;28;20139;-73
2023/05/05 09:57:07;;;;;;;1999.90;999.90;;;;;;;25.61;38.69;98216.91;5030951;28;20017;-73
2023/05/05 09:59:33;;;;;;;1999.90;999.90;;;;;;;25.26;39.49;98216.56;5031574;28;20470;-73
2023/05/05 10:02:12;;;;;;;1999.90;999.90;;;;;;;25.09;39.17;98223.63;5031201;28;20503;-74
2023/05/05 10:04:38;;;;;;;1999.90;999.90;;;;;;;25.23;38.79;98212.56;5031288;28;20030;-73
2023/05/05 10:07:04;;;;;;;1999.90;999.90;;;;;;;25.40;38.85;98223.13;5013501;28;20022;-73
2023/05/05 10:09:32;;;;;;;1999.90;999.90;;;;;;;25.25;38.71;98212.19;5031197;28;20402;-75
2023/05/05 10:11:59;;;;;;;1999.90;999.90;;;;;;;25.25;39.33;98210.16;5031027;28;20418;-74
2023/05/05 10:14:26;;;;;;;1999.90;999.90;;;;;;;25.47;38.70;98203.56;5028155;28;20025;-74
2023/05/05 10:16:53;;;;;;;1999.90;999.90;;;;;;;25.65;38.53;98200.13;5031016;28;20036;-74
2023/05/05 10:19:23;;;;;;;1999.90;999.90;;;;;;;25.47;38.39;98195.16;5013159;28;20398;-74
2023/05/05 10:21:50;;;;;;;1999.90;999.90;;;;;;;25.70;38.73;98192.16;5012535;28;20021;-74
2023/05/05 10:24:24;;;;;;;1999.90;999.90;;;;;;;25.87;38.27;98202.72;5030286;28;20341;-74
2023/05/05 10:26:51;;;;;;;1999.90;999.90;;;;;;;26.14;38.19;98194.84;5030686;28;20053;-74
2023/05/05 10:29:28;;;;;;;1999.90;999.90;;;;;;;26.29;37.14;98185.34;5030568;28;20409;-74
2023/05/05 10:32:02;;;;;;;1999.90;999.90;;;;;;;26.52;37.40;98187.84;5030543;28;20493;-75
2023/05/05 10:34:58;;;;;;;1999.90;999.90;;;;;;;26.88;36.53;98189.59;5030331;28;20111;-75
2023/05/05 10:37:24;;;;;;;1999.90;999.90;;;;;;;27.10;36.44;98187.63;5016140;28;20094;-74
2023/05/05 10:39:51;;;;;;;1999.90;999.90;;;;;;;26.66;35.69;98173.06;5050320;28;20032;-75
2023/05/05 10:42:18;;;;;;;1999.90;999.90;;;;;;;26.27;36.39;98175.72;5050396;28;20104;-74
2023/05/05 10:44:43;;;;;;;1999.90;999.90;;;;;;;25.99;37.23;98153.91;5049988;28;20108;-75
2023/05/05 10:47:10;;;;;;;1999.90;999.90;;;;;;;25.38;38.37;98155.44;5050015;28;20909;-75
2023/05/05 10:49:41;;;;;;;1999.90;999.90;;;;;;;25.23;38.91;98150.94;5047636;28;20036;-75
2023/05/05 10:52:25;;;;;;;1999.90;999.90;;;;;;;24.54;39.81;98138.63;5026237;28;20606;-74